createdAt,value
2023-01-13T00:01:46.387Z,100093.75
2023-01-13T00:04:19.095Z,100097.09
2023-01-13T00:06:47.464Z,100103.38
2023-01-13T00:09:15.637Z,100096.34
2023-01-13T00:11:44.878Z,100090.31
2023-01-13T00:14:17.449Z,100084.25
2023-01-13T00:16:47.584Z,100084.44
2023-01-13T00:19:17.876Z,100070.75
2023-01-13T00:21:46.712Z,100065.56
2023-01-13T00:24:15.650Z,100068.91
2023-01-13T00:26:44.556Z,100069.81
2023-01-13T00:29:12.721Z,100063.91
2023-01-13T00:31:44.413Z,100063.50
2023-01-13T00:34:14.456Z,100059.44
2023-01-13T00:36:44.908Z,100061.44
2023-01-13T00:39:14.049Z,100060.91
2023-01-13T00:42:00.121Z,100051.44
2023-01-13T00:44:28.432Z,100052.41
2023-01-13T00:46:59.524Z,100045.00
2023-01-13T00:49:31.097Z,100046.44
2023-01-13T00:52:04.495Z,100035.19
2023-01-13T00:54:32.857Z,100032.59
2023-01-13T00:57:01.008Z,100030.44
2023-01-13T00:59:29.071Z,100030.59
2023-01-13T01:02:00.137Z,100030.38
2023-01-13T01:04:28.536Z,100015.97
2023-01-13T01:06:58.343Z,100025.97
2023-01-13T01:09:32.917Z,100015.25
2023-01-13T01:12:02.737Z,100011.38
2023-01-13T01:14:33.452Z,100012.72
2023-01-13T01:17:01.596Z,100013.63
2023-01-13T01:19:32.538Z,100002.72
2023-01-13T01:22:01.557Z,100000.34
2023-01-13T01:24:30.994Z,100006.81
2023-01-13T01:27:00.832Z,100002.38
2023-01-13T01:29:28.991Z,100005.66
2023-01-13T01:32:00.659Z,100017.13
2023-01-13T01:34:28.876Z,100014.59
2023-01-13T01:36:58.466Z,100023.97
2023-01-13T01:39:26.821Z,100021.22
2023-01-13T01:42:16.336Z,100008.66
2023-01-13T01:44:56.133Z,100014.22
2023-01-13T01:47:26.258Z,100002.38
2023-01-13T01:50:01.949Z,100010.41
2023-01-13T01:52:35.085Z,100002.16
2023-01-13T01:55:07.644Z,100009.41
2023-01-13T01:57:43.721Z,99994.22
2023-01-13T02:00:13.207Z,100001.63
2023-01-13T02:02:47.282Z,99999.41
2023-01-13T02:05:16.553Z,99995.72
2023-01-13T02:07:49.472Z,99994.63
2023-01-13T02:10:22.642Z,99992.59
2023-01-13T02:12:56.674Z,99999.00
2023-01-13T02:15:31.803Z,99983.38
2023-01-13T02:18:11.435Z,99980.38
2023-01-13T02:20:59.366Z,99976.72
2023-01-13T02:24:18.504Z,99971.34
2023-01-13T02:27:29.692Z,99961.78
2023-01-13T02:30:32.101Z,99968.81
2023-01-13T02:33:15.838Z,99967.72
2023-01-13T02:35:51.046Z,99969.59
2023-01-13T02:38:25.712Z,99961.09
2023-01-13T02:40:59.644Z,99963.69
2023-01-13T02:44:00.753Z,99958.75
2023-01-13T02:46:47.932Z,99957.97
2023-01-13T02:49:26.203Z,99953.63
2023-01-13T02:52:02.368Z,99942.19
2023-01-13T02:54:38.110Z,99937.41
2023-01-13T02:57:12.171Z,99945.72
2023-01-13T02:59:42.198Z,99948.31
2023-01-13T03:02:18.663Z,99945.72
2023-01-13T03:04:56.919Z,99951.28
2023-01-13T03:08:01.691Z,99944.06
2023-01-13T03:11:04.981Z,99940.97
2023-01-13T03:13:53.302Z,99949.09
2023-01-13T03:16:34.014Z,99943.59
2023-01-13T03:19:22.109Z,99943.59
2023-01-13T03:21:56.830Z,99926.94
2023-01-13T03:24:33.052Z,99925.50
2023-01-13T03:27:07.943Z,99924.75
2023-01-13T03:29:41.330Z,99916.09
2023-01-13T03:32:17.503Z,99931.44
2023-01-13T03:34:54.458Z,99932.72
2023-01-13T03:37:34.802Z,99920.53
2023-01-13T03:40:08.635Z,99919.06
2023-01-13T03:43:02.954Z,99925.38
2023-01-13T03:45:35.839Z,99915.59
2023-01-13T03:48:12.182Z,99926.66
2023-01-13T03:50:45.554Z,99910.19
2023-01-13T03:53:20.653Z,99908.56
2023-01-13T03:55:55.120Z,99893.41
2023-01-13T03:58:30.188Z,99898.56
2023-01-13T04:01:04.268Z,99895.81
2023-01-13T04:03:40.265Z,99889.31
2023-01-13T04:06:21.600Z,99884.56
2023-01-13T04:08:54.087Z,99876.56
2023-01-13T04:11:32.081Z,99874.75
2023-01-13T04:14:02.586Z,99865.38
2023-01-13T04:16:35.659Z,99862.41
2023-01-13T04:19:08.700Z,99874.59
2023-01-13T04:21:38.951Z,99868.91
2023-01-13T04:24:09.176Z,99864.81
2023-01-13T04:26:41.634Z,99857.84
2023-01-13T04:29:09.935Z,99868.44
2023-01-13T04:31:38.534Z,99885.06
2023-01-13T04:34:12.318Z,99864.22
2023-01-13T04:36:44.934Z,99881.97
2023-01-13T04:39:13.527Z,99875.28
2023-01-13T04:41:59.554Z,99881.91
2023-01-13T04:44:27.957Z,99872.13
2023-01-13T04:46:57.613Z,99877.59
2023-01-13T04:49:27.506Z,99873.88
2023-01-13T04:52:02.323Z,99877.44
2023-01-13T04:54:31.797Z,99864.09
2023-01-13T04:57:00.246Z,99857.66
2023-01-13T04:59:28.419Z,99855.63
2023-01-13T05:01:57.188Z,99861.00
2023-01-13T05:04:26.306Z,99854.00
2023-01-13T05:06:54.967Z,99848.47
2023-01-13T05:09:25.525Z,99854.50
2023-01-13T05:12:12.608Z,99853.38
2023-01-13T05:14:58.489Z,99844.16
2023-01-13T05:17:28.072Z,99843.75
2023-01-13T05:19:57.819Z,99837.50
2023-01-13T05:22:43.776Z,99828.38
2023-01-13T05:25:22.520Z,99830.44
2023-01-13T05:27:53.531Z,99825.03
2023-01-13T05:30:25.440Z,99828.72
2023-01-13T05:32:57.087Z,99820.00
2023-01-13T05:35:29.134Z,99820.00
2023-01-13T05:37:58.641Z,99824.13
2023-01-13T05:40:45.521Z,99823.06
2023-01-13T05:43:23.625Z,99824.72
2023-01-13T05:45:54.805Z,99823.41
2023-01-13T05:48:26.053Z,99814.53
2023-01-13T05:50:55.094Z,99836.81
2023-01-13T05:53:25.206Z,99829.78
2023-01-13T05:55:57.133Z,99840.84
2023-01-13T05:58:27.013Z,99846.22
2023-01-13T06:01:00.690Z,99851.03
2023-01-13T06:03:29.039Z,99846.81
2023-01-13T06:05:59.344Z,99851.44
2023-01-13T06:08:28.992Z,99861.28
2023-01-13T06:10:58.821Z,99864.41
2023-01-13T06:13:27.718Z,99879.88
2023-01-13T06:15:58.736Z,99881.38
2023-01-13T06:18:27.681Z,99890.22
2023-01-13T06:20:56.704Z,99894.44
2023-01-13T06:23:25.359Z,99900.44
2023-01-13T06:26:14.647Z,99929.38
2023-01-13T06:28:45.379Z,99938.88
2023-01-13T06:31:14.243Z,99945.84
2023-01-13T06:33:47.911Z,99945.97
2023-01-13T06:36:23.180Z,99960.00
2023-01-13T06:38:57.424Z,99943.50
2023-01-13T06:41:42.493Z,99950.50
2023-01-13T06:44:12.102Z,99958.63
2023-01-13T06:46:40.584Z,99972.81
2023-01-13T06:49:09.761Z,99963.81
2023-01-13T06:51:38.332Z,99971.72
2023-01-13T06:54:06.776Z,99963.81
2023-01-13T06:56:36.566Z,99962.31
2023-01-13T06:59:05.071Z,99961.97
2023-01-13T07:01:36.662Z,99963.63
2023-01-13T07:04:05.206Z,99943.91
2023-01-13T07:06:33.385Z,99945.03
2023-01-13T07:09:03.001Z,99946.88
2023-01-13T07:11:31.654Z,99936.16
2023-01-13T07:14:19.911Z,99933.06
2023-01-13T07:16:50.522Z,99934.53
2023-01-13T07:19:24.238Z,99938.94
2023-01-13T07:21:53.858Z,99942.25
2023-01-13T07:24:22.753Z,99954.22
2023-01-13T07:26:52.132Z,99960.09
2023-01-13T07:29:21.604Z,99979.25
2023-01-13T07:31:50.442Z,99985.16
2023-01-13T07:34:19.070Z,99988.31
2023-01-13T07:36:47.282Z,99976.34
2023-01-13T07:39:15.774Z,99980.75
2023-01-13T07:42:01.418Z,99981.28
2023-01-13T07:44:31.383Z,99979.09
2023-01-13T07:46:59.943Z,99969.88
2023-01-13T07:49:28.060Z,99981.47
2023-01-13T07:51:57.841Z,99975.94
2023-01-13T07:54:40.105Z,99975.38
2023-01-13T07:57:09.375Z,100003.19
2023-01-13T07:59:39.241Z,100007.06
2023-01-13T08:02:07.655Z,100010.91
2023-01-13T08:04:36.056Z,100017.53
2023-01-13T08:07:06.269Z,100011.66
2023-01-13T08:09:34.793Z,100020.13
2023-01-13T08:12:20.990Z,100026.00
2023-01-13T08:14:51.757Z,100034.66
2023-01-13T08:17:24.863Z,100048.84
2023-01-13T08:19:53.189Z,100060.75
2023-01-13T08:22:25.840Z,100069.94
2023-01-13T08:24:59.854Z,100066.25
2023-01-13T08:27:31.026Z,100071.78
2023-01-13T08:30:00.646Z,100070.88
2023-01-13T08:32:31.528Z,100083.81
2023-01-13T08:34:59.915Z,100082.00
2023-01-13T08:37:28.216Z,100083.63
2023-01-13T08:39:57.155Z,100093.75
2023-01-13T08:42:27.856Z,100092.66
2023-01-13T08:44:56.820Z,100103.31
2023-01-13T08:47:27.979Z,100107.59
2023-01-13T08:49:56.627Z,100108.13
2023-01-13T08:52:25.427Z,100112.00
2023-01-13T08:54:54.232Z,100105.97
2023-01-13T08:57:24.053Z,100113.88
2023-01-13T08:59:54.559Z,100110.00
2023-01-13T09:02:24.599Z,100105.03
2023-01-13T09:05:02.817Z,100112.59
2023-01-13T09:07:31.656Z,100115.38
2023-01-13T09:09:59.963Z,100109.34
2023-01-13T09:12:46.400Z,100110.78
2023-01-13T09:15:18.317Z,100115.94
2023-01-13T09:17:47.879Z,100124.81
2023-01-13T09:20:18.176Z,100134.03
2023-01-13T09:22:46.506Z,100142.50
2023-01-13T09:25:15.220Z,100148.78
2023-01-13T09:27:43.496Z,100150.25
2023-01-13T09:30:12.614Z,100144.22
2023-01-13T09:32:40.903Z,100148.31
2023-01-13T09:35:10.319Z,100136.47
2023-01-13T09:37:42.367Z,100145.13
2023-01-13T09:40:17.612Z,100146.03
2023-01-13T09:43:07.706Z,100155.59
2023-01-13T09:45:41.214Z,100162.78
2023-01-13T09:48:14.794Z,100172.63
2023-01-13T09:50:58.533Z,100168.94
2023-01-13T09:53:33.909Z,100170.22
2023-01-13T09:56:02.479Z,100181.13
2023-01-13T09:58:30.935Z,100175.22
2023-01-13T10:01:10.734Z,100187.22
2023-01-13T10:03:39.860Z,100190.00
2023-01-13T10:06:14.879Z,100200.47
2023-01-13T10:08:46.905Z,100178.72
2023-01-13T10:11:35.555Z,100180.38
2023-01-13T10:14:11.609Z,100184.81
2023-01-13T10:16:45.318Z,100182.06
2023-01-13T10:19:19.227Z,100174.31
2023-01-13T10:22:24.232Z,100170.06
2023-01-13T10:25:45.276Z,100161.94
2023-01-13T10:28:21.093Z,100168.00
2023-01-13T10:30:50.974Z,100170.59
2023-01-13T10:33:23.489Z,100166.31
2023-01-13T10:35:56.339Z,100155.47
2023-01-13T10:38:30.743Z,100159.88
2023-01-13T10:41:00.699Z,100160.81
2023-01-13T10:43:35.728Z,100142.69
2023-01-13T10:46:07.035Z,100146.53
2023-01-13T10:48:41.527Z,100156.50
2023-01-13T10:51:29.030Z,100154.44
2023-01-13T10:54:01.005Z,100150.91
2023-01-13T10:56:32.302Z,100149.84
2023-01-13T10:59:23.169Z,100146.53
2023-01-13T11:02:02.416Z,100138.25
2023-01-13T11:04:36.262Z,100135.66
2023-01-13T11:07:07.184Z,100130.22
2023-01-13T11:09:35.473Z,100140.63
2023-01-13T11:12:06.085Z,100137.25
2023-01-13T11:14:40.568Z,100131.13
2023-01-13T11:17:24.616Z,100137.22
2023-01-13T11:20:07.172Z,100148.69
2023-01-13T11:22:42.367Z,100140.72
2023-01-13T11:25:15.564Z,100147.69
2023-01-13T11:27:49.006Z,100159.91
2023-01-13T11:30:30.817Z,100157.31
2023-01-13T11:33:16.877Z,100159.34
2023-01-13T11:35:51.074Z,100145.66
2023-01-13T11:38:29.852Z,100147.47
2023-01-13T11:41:06.917Z,100165.38
2023-01-13T11:43:42.092Z,100153.22
2023-01-13T11:46:12.382Z,100169.25
2023-01-13T11:48:43.437Z,100178.38
2023-01-13T11:51:26.455Z,100168.56
2023-01-13T11:54:11.611Z,100172.16
2023-01-13T11:57:03.122Z,100177.63
2023-01-13T11:59:51.971Z,100180.03
2023-01-13T12:02:43.043Z,100190.44
2023-01-13T12:05:20.285Z,100187.13
2023-01-13T12:07:59.893Z,100193.22
2023-01-13T12:10:43.694Z,100183.41
2023-01-13T12:13:34.931Z,100176.53
2023-01-13T12:16:33.759Z,100202.91
2023-01-13T12:19:26.441Z,100159.25
2023-01-13T12:22:08.922Z,100177.66
2023-01-13T12:24:45.928Z,100182.16
2023-01-13T12:27:20.468Z,100177.59
2023-01-13T12:29:53.180Z,100183.94
2023-01-13T12:32:32.488Z,100180.78
2023-01-13T12:35:33.882Z,100179.91
2023-01-13T12:38:09.588Z,100188.59
2023-01-13T12:40:51.880Z,100178.47
2023-01-13T12:43:40.063Z,100193.81
2023-01-13T12:46:53.406Z,100190.88
2023-01-13T12:49:29.031Z,100184.59
2023-01-13T12:52:18.432Z,100179.44
2023-01-13T12:55:21.362Z,100172.44
2023-01-13T12:57:59.363Z,100162.47
2023-01-13T13:00:38.077Z,100160.59
2023-01-13T13:03:38.792Z,100155.78
2023-01-13T13:06:31.355Z,100159.44
2023-01-13T13:09:05.075Z,100165.91
2023-01-13T13:11:58.660Z,100164.03
2023-01-13T13:15:13.109Z,100161.81
2023-01-13T13:17:43.096Z,100171.88
2023-01-13T13:20:56.066Z,100178.59
2023-01-13T13:23:32.988Z,100187.94
2023-01-13T13:26:21.314Z,100187.47
2023-01-13T13:29:16.643Z,100185.50
2023-01-13T13:32:18.323Z,100185.63
2023-01-13T13:34:54.045Z,100188.44
2023-01-13T13:37:58.846Z,100203.72
2023-01-13T13:40:48.791Z,100214.94
2023-01-13T13:43:38.459Z,100226.25
2023-01-13T13:46:40.223Z,100223.00
2023-01-13T13:49:12.767Z,100213.66
2023-01-13T13:51:45.281Z,100207.97
2023-01-13T13:54:17.455Z,100219.06
2023-01-13T13:56:50.403Z,100223.56
2023-01-13T13:59:22.595Z,100214.88
2023-01-13T14:02:00.896Z,100218.91
2023-01-13T14:04:31.481Z,100212.38
2023-01-13T14:07:01.955Z,100218.97
2023-01-13T14:09:43.750Z,100244.88
2023-01-13T14:12:19.463Z,100249.19
2023-01-13T14:14:50.844Z,100263.38
2023-01-13T14:17:24.546Z,100282.78
2023-01-13T14:19:54.781Z,100293.50
2023-01-13T14:22:24.071Z,100292.94
2023-01-13T14:24:55.707Z,100295.91
2023-01-13T14:27:27.375Z,100304.75
2023-01-13T14:29:59.588Z,100302.69
2023-01-13T14:32:33.587Z,100316.47
2023-01-13T14:35:02.715Z,100318.66
2023-01-13T14:37:36.304Z,100313.44
2023-01-13T14:40:06.919Z,100312.19
2023-01-13T14:42:36.207Z,100326.88
2023-01-13T14:45:24.486Z,100317.66
2023-01-13T14:47:54.749Z,100333.56
2023-01-13T14:50:29.439Z,100325.41
2023-01-13T14:53:00.605Z,100322.81
2023-01-13T14:55:33.033Z,100333.94
2023-01-13T14:58:28.167Z,100341.84
2023-01-13T15:01:31.077Z,100348.31
2023-01-13T15:04:17.100Z,100353.09
2023-01-13T15:07:00.437Z,100357.69
2023-01-13T15:09:34.543Z,100364.31
2023-01-13T15:12:22.182Z,100364.50
2023-01-13T15:14:52.607Z,100362.88
2023-01-13T15:17:25.231Z,100377.25
2023-01-13T15:19:54.983Z,100375.94
2023-01-13T15:23:13.012Z,100386.44
2023-01-13T15:25:53.161Z,100391.44
2023-01-13T15:28:26.176Z,100396.78
2023-01-13T15:31:00.488Z,100395.31
2023-01-13T15:33:32.457Z,100399.09
2023-01-13T15:36:02.819Z,100408.09
2023-01-13T15:38:31.027Z,100392.97
2023-01-13T15:41:00.534Z,100390.03
2023-01-13T15:43:51.368Z,100402.00
2023-01-13T15:46:41.159Z,100394.25
2023-01-13T15:49:24.255Z,100396.28
2023-01-13T15:51:53.062Z,100401.44
2023-01-13T15:54:24.494Z,100400.47
2023-01-13T15:56:53.589Z,100406.91
2023-01-13T15:59:28.055Z,100398.75
2023-01-13T16:01:56.900Z,100406.50
2023-01-13T16:04:28.396Z,100402.00
2023-01-13T16:06:56.912Z,100418.78
2023-01-13T16:09:25.287Z,100414.72
2023-01-13T16:11:54.526Z,100419.84
2023-01-13T16:14:23.053Z,100419.34
2023-01-13T16:16:52.141Z,100424.63
2023-01-13T16:19:20.283Z,100435.28
2023-01-13T16:21:51.161Z,100442.13
2023-01-13T16:24:20.591Z,100452.69
2023-01-13T16:26:48.879Z,100460.78
2023-01-13T16:29:18.434Z,100460.09
2023-01-13T16:31:49.520Z,100461.31
2023-01-13T16:34:19.025Z,100468.34
2023-01-13T16:36:47.511Z,100468.81
2023-01-13T16:39:25.780Z,100479.25
2023-01-13T16:41:54.100Z,100476.06
2023-01-13T16:44:25.361Z,100481.03
2023-01-13T16:46:54.471Z,100486.19
2023-01-13T16:49:25.357Z,100484.00
2023-01-13T16:51:54.047Z,100497.63
2023-01-13T16:54:24.208Z,100504.41
2023-01-13T16:56:53.732Z,100493.91
2023-01-13T16:59:22.418Z,100487.13
2023-01-13T17:01:52.271Z,100502.56
2023-01-13T17:04:23.491Z,100508.81
2023-01-13T17:06:56.234Z,100515.66
2023-01-13T17:09:28.087Z,100506.56
2023-01-13T17:11:56.856Z,100514.16
2023-01-13T17:14:26.882Z,100526.16
2023-01-13T17:17:00.191Z,100525.88
2023-01-13T17:19:29.811Z,100536.06
2023-01-13T17:21:58.070Z,100533.84
2023-01-13T17:24:33.556Z,100538.44
2023-01-13T17:27:03.126Z,100536.00
2023-01-13T17:29:33.046Z,100547.88
2023-01-13T17:32:02.801Z,100551.09
2023-01-13T17:34:30.982Z,100562.09
2023-01-13T17:36:59.393Z,100554.03
2023-01-13T17:39:30.648Z,100563.84
2023-01-13T17:41:59.095Z,100556.81
2023-01-13T17:44:27.316Z,100563.75
2023-01-13T17:46:57.941Z,100572.78
2023-01-13T17:49:28.182Z,100578.53
2023-01-13T17:51:56.546Z,100579.56
2023-01-13T17:54:25.039Z,100575.53
2023-01-13T17:56:56.648Z,100588.81
2023-01-13T17:59:25.269Z,100587.00
2023-01-13T18:01:53.963Z,100600.28
2023-01-13T18:04:27.141Z,100593.38
2023-01-13T18:06:57.722Z,100603.97
2023-01-13T18:09:26.663Z,100615.59
2023-01-13T18:11:56.687Z,100617.88
2023-01-13T18:14:25.461Z,100622.78
2023-01-13T18:16:53.975Z,100616.72
2023-01-13T18:19:39.967Z,100612.28
2023-01-13T18:22:29.690Z,100623.09
2023-01-13T18:25:16.301Z,100624.09
2023-01-13T18:27:46.753Z,100640.75
2023-01-13T18:30:19.290Z,100640.03
2023-01-13T18:32:48.021Z,100640.34
2023-01-13T18:35:16.503Z,100631.97
2023-01-13T18:37:44.809Z,100635.72
2023-01-13T18:40:14.814Z,100622.56
2023-01-13T18:42:55.020Z,100629.00
2023-01-13T18:45:29.168Z,100638.16
2023-01-13T18:47:59.582Z,100652.72
2023-01-13T18:50:28.465Z,100645.72
2023-01-13T18:52:58.235Z,100648.16
2023-01-13T18:55:28.688Z,100657.50
2023-01-13T18:57:59.396Z,100657.59
2023-01-13T19:00:31.993Z,100659.41
2023-01-13T19:05:38.288Z,100659.44
2023-01-13T19:08:07.063Z,100660.16
2023-01-13T19:10:37.540Z,100661.56
2023-01-13T19:13:06.152Z,100671.00
2023-01-13T19:15:37.318Z,100676.28
2023-01-13T19:18:06.203Z,100675.34
2023-01-13T19:20:40.420Z,100693.94
2023-01-13T19:23:08.787Z,100689.47
2023-01-13T19:25:39.259Z,100694.25
2023-01-13T19:28:07.759Z,100701.25
2023-01-13T19:30:37.684Z,100697.72
2023-01-13T19:33:06.480Z,100695.31
2023-01-13T19:35:37.636Z,100705.59
2023-01-13T19:38:07.313Z,100700.09
2023-01-13T19:40:36.692Z,100716.97
2023-01-13T19:43:22.525Z,100717.09
2023-01-13T19:45:53.288Z,100713.88
2023-01-13T19:48:21.374Z,100729.19
2023-01-13T19:50:49.790Z,100727.06
2023-01-13T19:53:18.578Z,100745.13
2023-01-13T19:55:48.579Z,100751.28
2023-01-13T19:58:18.824Z,100747.03
2023-01-13T20:00:48.581Z,100756.78
2023-01-13T20:03:20.973Z,100749.25
2023-01-13T20:05:49.576Z,100752.78
2023-01-13T20:08:18.214Z,100742.78
2023-01-13T20:10:50.047Z,100739.19
2023-01-13T20:13:18.381Z,100743.41
2023-01-13T20:15:46.937Z,100743.53
2023-01-13T20:18:15.131Z,100752.34
2023-01-13T20:20:44.858Z,100753.41
2023-01-13T20:23:12.927Z,100745.53
2023-01-13T20:25:43.520Z,100755.44
2023-01-13T20:28:12.049Z,100757.66
2023-01-13T20:30:41.741Z,100764.22
2023-01-13T20:33:10.320Z,100766.03
2023-01-13T20:35:39.871Z,100751.50
2023-01-13T20:38:11.447Z,100762.88
2023-01-13T20:40:40.158Z,100769.44
2023-01-13T20:43:08.402Z,100775.69
2023-01-13T20:45:40.448Z,100784.53
2023-01-13T20:48:09.053Z,100784.00
2023-01-13T20:50:37.330Z,100792.16
2023-01-13T20:53:05.583Z,100787.84
2023-01-13T20:55:35.484Z,100791.66
2023-01-13T20:58:05.131Z,100790.88
2023-01-13T21:00:39.212Z,100795.69
2023-01-13T21:03:08.557Z,100799.28
2023-01-13T21:05:37.155Z,100796.84
2023-01-13T21:08:07.210Z,100802.91
2023-01-13T21:10:37.882Z,100793.44
2023-01-13T21:13:24.112Z,100801.53
2023-01-13T21:15:52.794Z,100803.88
2023-01-13T21:18:40.032Z,100808.13
2023-01-13T21:21:12.983Z,100807.56
2023-01-13T21:23:44.024Z,100804.41
2023-01-13T21:26:15.623Z,100809.69
2023-01-13T21:28:46.610Z,100812.47
2023-01-13T21:31:16.430Z,100813.53
2023-01-13T21:33:45.145Z,100809.25
2023-01-13T21:36:14.312Z,100815.84
2023-01-13T21:38:44.920Z,100811.19
2023-01-13T21:41:16.187Z,100817.22
2023-01-13T21:44:16.822Z,100816.50
2023-01-13T21:47:02.767Z,100822.56
2023-01-13T21:49:31.880Z,100824.53
2023-01-13T21:52:01.980Z,100831.25
2023-01-13T21:54:30.827Z,100833.50
2023-01-13T21:57:01.360Z,100837.22
2023-01-13T21:59:30.400Z,100839.41
2023-01-13T22:02:24.743Z,100841.94
2023-01-13T22:04:54.214Z,100843.63
2023-01-13T22:07:22.624Z,100836.09
2023-01-13T22:09:51.171Z,100840.25
2023-01-13T22:12:24.989Z,100840.56
2023-01-13T22:14:53.834Z,100847.47
2023-01-13T22:17:26.342Z,100842.50
2023-01-13T22:19:57.141Z,100848.88
2023-01-13T22:22:27.229Z,100843.78
2023-01-13T22:24:55.968Z,100839.63
2023-01-13T22:27:31.387Z,100839.91
2023-01-13T22:30:00.107Z,100837.47
2023-01-13T22:32:28.619Z,100845.25
2023-01-13T22:34:57.209Z,100846.91
2023-01-13T22:37:25.571Z,100853.19
2023-01-13T22:39:54.075Z,100858.72
2023-01-13T22:42:22.675Z,100862.81
2023-01-13T22:44:53.200Z,100862.50
2023-01-13T22:47:25.647Z,100865.56
2023-01-13T22:49:53.862Z,100866.31
2023-01-13T22:52:22.897Z,100872.25
2023-01-13T22:54:51.429Z,100877.34
2023-01-13T22:57:20.072Z,100881.78
2023-01-13T22:59:49.322Z,100870.84
2023-01-13T23:02:18.934Z,100879.25
2023-01-13T23:04:47.706Z,100887.31
2023-01-13T23:07:16.235Z,100889.97
2023-01-13T23:09:44.451Z,100882.66
2023-01-13T23:12:12.841Z,100877.44
2023-01-13T23:14:41.809Z,100885.38
2023-01-13T23:17:10.613Z,100884.09
2023-01-13T23:19:40.617Z,100893.69
2023-01-13T23:22:10.167Z,100884.88
2023-01-13T23:24:40.004Z,100888.38
2023-01-13T23:27:08.212Z,100893.63
2023-01-13T23:29:36.893Z,100894.63
2023-01-13T23:32:06.480Z,100887.81
2023-01-13T23:34:37.342Z,100887.09
2023-01-13T23:37:06.896Z,100883.91
2023-01-13T23:39:36.142Z,100886.44
2023-01-13T23:42:04.574Z,100879.06
2023-01-13T23:44:33.002Z,100886.00
2023-01-13T23:47:01.655Z,100880.28
2023-01-13T23:49:33.907Z,100883.25
2023-01-13T23:52:04.455Z,100885.50
2023-01-13T23:54:34.308Z,100878.78
2023-01-13T23:57:04.105Z,100878.56
2023-01-13T23:59:35.611Z,100880.06
